< < Back
Terminal Aerodrome Forecast


Current Version              Previous Versions:   1  2  3  4  5  6  7  8  9  

Terminal Aerodrome Forecast

328
FTUS42 KCAE 250830 AAA
TAFCAE
TAF AMD
KCAE 250830Z 2509/2606 VRB03KT P6SM SCT080 BKN200
     FM251400 36005KT P6SM SCT250
     FM251900 05008KT P6SM SCT040 BKN100
     FM260100 05006KT P6SM BKN080=



Latest METAR

070
SAUS80 KWBC 251200
MTRCAE
METAR KCAE 251156Z 26004KT 9SM FEW150 26/22 A3003 RMK AO2 SLP165
T02610217 10261 20228 53018


USA.gov is the U.S. government's official web portal to all federal, state and local government web resources and services.